Caledonia, MN

2:46 AM CST on February 10, 2016 (GMT -0600)
500 Nannestad Lane | | Change Station
CLOSE
Current Station
Personal Weather Station
Location: Rushford, MN
Elevation: 728 ft
Nearby Weather Stations

Elev 728 ft 43.81 °N, 91.75 °W | Updated 6 minutes ago

Clear
Clear
-3.3 °F
Feels Like -3 °F
N
0.0
Wind Variable Wind from ESE

Today
High -- | Low -- °F
--% Chance of Precip.
Yesterday
High -- | Low -- °F
Precip. -- in
Pressure 30.17 in
Visibility 10.0 miles
Clouds Clear
Windchill -3 °F
Dew Point -7 °F
Humidity 83%
Rainfall 0.00 in
Snow Depth Not available.
7:12 AM 5:28 PM
Waxing Crescent, 4% visible
METAR KLSE 100753Z AUTO 33010KT 10SM CLR M16/M21 A3009 RMK AO2 SLP215 T11561211
Pressure 30.17 in
Visibility 10.0 miles
Clouds Clear
Windchill -3 °F
Dew Point -7 °F
Humidity 83%
Rainfall 0.00 in
Snow Depth Not available.
7:12 AM 5:28 PM
Waxing Crescent, 4% visible
METAR KLSE 100753Z AUTO 33010KT 10SM CLR M16/M21 A3009 RMK AO2 SLP215 T11561211

10-Day Weather Forecast

Almanac

Astronomy

Feb. 10, 2016 Rise Set
Actual Time
Civil Twilight
Nautical Twilight
Astronomical Twilight
Moon
Length of Visible Light
Length of Day
Tomorrow will be .
, % of the Moon is Illuminated

Today's Extremes

State Highs State Lows

Community

WunderPhotos

Upload Photos

1,891,826 photos uploaded!

WunderBlog® & News

Nearby

Air Quality

  Air Quality AQ Index Pollutant
Not available.

Snow Depth

Station Depth Elevation

Earthquake Activity

City Distance Mag. Time & Date
Minimum magnitude displayed is 2.5.

Coastal Water Temperatures

Place Temperature

Stations

Nearby Weather Stations

Station Location Temp. Windchill Dew Point Humidity Wind Precip. Elev Updated Type
                   

Watches & Warnings

There are currently no watches in effect.